createdAt,value
2023-05-10T00:01:53.883Z,99874.59
2023-05-10T00:04:22.640Z,99870.45
2023-05-10T00:06:51.380Z,99866.98
2023-05-10T00:09:20.026Z,99867.70
2023-05-10T00:11:48.710Z,99864.27
2023-05-10T00:14:17.344Z,99865.78
2023-05-10T00:16:46.649Z,99868.05
2023-05-10T00:19:15.337Z,99863.38
2023-05-10T00:21:44.549Z,99863.85
2023-05-10T00:24:13.199Z,99867.12
2023-05-10T00:26:42.619Z,99867.55
2023-05-10T00:29:11.625Z,99864.06
2023-05-10T00:31:40.257Z,99864.93
2023-05-10T00:34:08.876Z,99864.39
2023-05-10T00:36:37.728Z,99862.25
2023-05-10T00:39:06.835Z,99860.31
2023-05-10T00:41:35.298Z,99860.17
2023-05-10T00:44:04.625Z,99859.27
2023-05-10T00:46:33.645Z,99856.36
2023-05-10T00:49:02.861Z,99852.20
2023-05-10T00:51:32.130Z,99851.64
2023-05-10T00:54:01.474Z,99846.38
2023-05-10T00:56:30.297Z,99846.63
2023-05-10T00:58:59.089Z,99847.55
2023-05-10T01:01:28.265Z,99846.21
2023-05-10T01:03:57.373Z,99848.63
2023-05-10T01:06:26.080Z,99846.70
2023-05-10T01:08:54.894Z,99846.41
2023-05-10T01:11:23.502Z,99843.42
2023-05-10T01:13:56.323Z,99842.25
2023-05-10T01:16:25.699Z,99842.51
2023-05-10T01:18:54.809Z,99841.20
2023-05-10T01:21:33.893Z,99838.42
2023-05-10T01:24:22.103Z,99842.73
2023-05-10T01:27:18.281Z,99836.77
2023-05-10T01:30:17.924Z,99833.84
2023-05-10T01:32:55.329Z,99834.30
2023-05-10T01:35:32.992Z,99836.65
2023-05-10T01:38:12.431Z,99837.41
2023-05-10T01:40:49.218Z,99837.08
2023-05-10T01:43:22.513Z,99834.30
2023-05-10T01:46:00.658Z,99831.87
2023-05-10T01:48:30.853Z,99832.81
2023-05-10T01:50:59.904Z,99829.92
2023-05-10T01:53:30.019Z,99826.89
2023-05-10T01:56:01.081Z,99825.73
2023-05-10T01:58:33.518Z,99826.91
2023-05-10T02:01:05.914Z,99828.23
2023-05-10T02:03:36.592Z,99832.34
2023-05-10T02:06:07.937Z,99830.52
2023-05-10T02:08:37.829Z,99827.08
2023-05-10T02:11:07.834Z,99825.07
2023-05-10T02:13:39.805Z,99823.20
2023-05-10T02:16:08.491Z,99818.39
2023-05-10T02:18:37.944Z,99820.17
2023-05-10T02:21:06.890Z,99821.01
2023-05-10T02:23:37.196Z,99823.73
2023-05-10T02:26:07.131Z,99822.98
2023-05-10T02:28:38.082Z,99816.45
2023-05-10T02:31:09.515Z,99814.75
2023-05-10T02:33:39.572Z,99810.76
2023-05-10T02:36:10.661Z,99816.45
2023-05-10T02:38:39.651Z,99819.45
2023-05-10T02:41:11.206Z,99818.05
2023-05-10T02:43:42.783Z,99817.73
2023-05-10T02:46:11.545Z,99814.09
2023-05-10T02:48:40.387Z,99817.22
2023-05-10T02:51:12.035Z,99812.72
2023-05-10T02:53:44.667Z,99813.69
2023-05-10T02:56:16.112Z,99814.52
2023-05-10T02:58:44.754Z,99813.27
2023-05-10T03:01:13.357Z,99814.55
2023-05-10T03:03:42.222Z,99817.34
2023-05-10T03:06:10.736Z,99811.45
2023-05-10T03:08:39.605Z,99815.59
2023-05-10T03:11:25.487Z,99813.10
2023-05-10T03:14:04.571Z,99815.81
2023-05-10T03:16:47.607Z,99814.11
2023-05-10T03:19:23.480Z,99812.72
2023-05-10T03:21:54.427Z,99808.41
2023-05-10T03:24:28.139Z,99808.47
2023-05-10T03:26:59.717Z,99806.62
2023-05-10T03:29:29.160Z,99810.12
2023-05-10T03:31:59.870Z,99806.75
2023-05-10T03:34:30.692Z,99802.98
2023-05-10T03:36:59.641Z,99798.10
2023-05-10T03:39:29.181Z,99795.03
2023-05-10T03:42:00.048Z,99793.94
2023-05-10T03:44:28.851Z,99789.96
2023-05-10T03:46:58.227Z,99790.22
2023-05-10T03:49:26.998Z,99790.28
2023-05-10T03:51:55.756Z,99792.48
2023-05-10T03:54:24.434Z,99792.59
2023-05-10T03:56:53.086Z,99793.40
2023-05-10T03:59:22.083Z,99790.39
2023-05-10T04:01:50.741Z,99790.11
2023-05-10T04:04:21.072Z,99788.14
2023-05-10T04:06:51.315Z,99790.18
2023-05-10T04:09:19.984Z,99787.08
2023-05-10T04:11:48.691Z,99787.34
2023-05-10T04:14:17.289Z,99786.84
2023-05-10T04:16:45.947Z,99785.16
2023-05-10T04:19:14.486Z,99783.58
2023-05-10T04:21:43.039Z,99784.95
2023-05-10T04:24:12.704Z,99786.08
2023-05-10T04:26:42.138Z,99789.09
2023-05-10T04:29:10.693Z,99786.52
2023-05-10T04:31:39.292Z,99781.64
2023-05-10T04:34:07.989Z,99784.42
2023-05-10T04:36:37.005Z,99782.30
2023-05-10T04:39:05.494Z,99776.52
2023-05-10T04:41:34.140Z,99779.88
2023-05-10T04:44:02.780Z,99781.14
2023-05-10T04:46:31.387Z,99781.59
2023-05-10T04:49:00.056Z,99778.70
2023-05-10T04:51:28.885Z,99775.53
2023-05-10T04:54:05.856Z,99779.17
2023-05-10T04:56:35.172Z,99775.98
2023-05-10T04:59:03.909Z,99773.89
2023-05-10T05:01:32.733Z,99767.91
2023-05-10T05:04:01.827Z,99774.34
2023-05-10T05:06:30.417Z,99772.92
2023-05-10T05:08:58.911Z,99771.14
2023-05-10T05:11:27.504Z,99771.96
2023-05-10T05:13:56.147Z,99772.14
2023-05-10T05:16:24.977Z,99775.70
2023-05-10T05:18:53.721Z,99775.33
2023-05-10T05:21:22.718Z,99773.98
2023-05-10T05:23:51.317Z,99774.94
2023-05-10T05:26:25.334Z,99774.89
2023-05-10T05:28:54.978Z,99777.81
2023-05-10T05:31:23.708Z,99772.73
2023-05-10T05:33:53.751Z,99771.19
2023-05-10T05:36:22.527Z,99772.81
2023-05-10T05:38:51.269Z,99771.61
2023-05-10T05:41:20.388Z,99765.57
2023-05-10T05:43:49.086Z,99766.98
2023-05-10T05:46:17.771Z,99766.84
2023-05-10T05:48:46.458Z,99762.88
2023-05-10T05:51:15.099Z,99768.26
2023-05-10T05:53:43.670Z,99770.41
2023-05-10T05:56:12.271Z,99765.05
2023-05-10T05:58:40.983Z,99767.33
2023-05-10T06:01:09.818Z,99769.20
2023-05-10T06:03:38.711Z,99765.71
2023-05-10T06:06:07.628Z,99763.79
2023-05-10T06:08:36.440Z,99762.09
2023-05-10T06:11:05.209Z,99763.63
2023-05-10T06:13:35.619Z,99754.06
2023-05-10T06:16:05.136Z,99756.49
2023-05-10T06:18:33.823Z,99759.63
2023-05-10T06:21:02.594Z,99761.60
2023-05-10T06:23:31.241Z,99765.40
2023-05-10T06:25:59.764Z,99763.35
2023-05-10T06:28:28.321Z,99761.48
2023-05-10T06:30:56.780Z,99764.15
2023-05-10T06:33:25.431Z,99762.58
2023-05-10T06:35:53.929Z,99764.92
2023-05-10T06:38:25.421Z,99763.95
2023-05-10T06:40:55.700Z,99764.40
2023-05-10T06:43:25.271Z,99765.33
2023-05-10T06:45:56.873Z,99765.08
2023-05-10T06:48:24.748Z,99765.27
2023-05-10T06:50:53.454Z,99762.64
2023-05-10T06:53:22.352Z,99764.98
2023-05-10T06:55:51.593Z,99767.07
2023-05-10T06:58:20.198Z,99766.88
2023-05-10T07:00:51.928Z,99762.42
2023-05-10T07:03:20.878Z,99766.83
2023-05-10T07:05:49.528Z,99769.48
2023-05-10T07:08:18.553Z,99770.20
2023-05-10T07:10:47.196Z,99762.43
2023-05-10T07:13:15.817Z,99760.20
2023-05-10T07:15:44.965Z,99759.88
2023-05-10T07:18:13.628Z,99758.20
2023-05-10T07:20:42.289Z,99755.84
2023-05-10T07:23:12.017Z,99764.36
2023-05-10T07:25:40.668Z,99759.87
2023-05-10T07:28:09.313Z,99759.88
2023-05-10T07:30:37.905Z,99758.86
2023-05-10T07:33:06.751Z,99754.51
2023-05-10T07:35:35.429Z,99753.60
2023-05-10T07:38:04.562Z,99753.40
2023-05-10T07:40:33.710Z,99743.70
2023-05-10T07:43:02.581Z,99743.89
2023-05-10T07:45:31.371Z,99746.84
2023-05-10T07:47:59.962Z,99748.13
2023-05-10T07:50:28.662Z,99751.86
2023-05-10T07:52:57.428Z,99745.40
2023-05-10T07:55:26.542Z,99744.46
2023-05-10T07:57:55.233Z,99740.94
2023-05-10T08:00:23.768Z,99740.64
2023-05-10T08:02:53.373Z,99738.03
2023-05-10T08:05:22.679Z,99738.17
2023-05-10T08:07:51.625Z,99738.27
2023-05-10T08:10:20.331Z,99736.70
2023-05-10T08:12:48.960Z,99728.52
2023-05-10T08:15:17.850Z,99732.61
2023-05-10T08:17:46.632Z,99734.09
2023-05-10T08:20:17.138Z,99740.08
2023-05-10T08:22:46.459Z,99741.70
2023-05-10T08:25:15.981Z,99738.21
2023-05-10T08:27:44.690Z,99732.15
2023-05-10T08:30:14.236Z,99731.55
2023-05-10T08:32:42.872Z,99736.73
2023-05-10T08:35:11.506Z,99737.89
2023-05-10T08:37:40.139Z,99736.05
2023-05-10T08:40:12.186Z,99737.69
2023-05-10T08:42:49.058Z,99736.89
2023-05-10T08:45:20.146Z,99743.52
2023-05-10T08:47:50.985Z,99744.75
2023-05-10T08:50:22.687Z,99739.88
2023-05-10T08:52:53.961Z,99741.66
2023-05-10T08:55:24.368Z,99742.81
2023-05-10T08:57:53.288Z,99743.59
2023-05-10T09:00:23.836Z,99741.49
2023-05-10T09:02:52.733Z,99736.39
2023-05-10T09:05:21.389Z,99737.85
2023-05-10T09:07:50.108Z,99736.55
2023-05-10T09:10:19.610Z,99736.41
2023-05-10T09:12:48.628Z,99738.81
2023-05-10T09:15:19.837Z,99736.14
2023-05-10T09:17:49.962Z,99732.29
2023-05-10T09:20:18.693Z,99741.59
2023-05-10T09:22:47.752Z,99741.29
2023-05-10T09:25:17.816Z,99739.12
2023-05-10T09:27:48.044Z,99740.76
2023-05-10T09:30:23.979Z,99738.72
2023-05-10T09:32:53.317Z,99739.45
2023-05-10T09:35:25.970Z,99733.63
2023-05-10T09:37:57.937Z,99739.16
2023-05-10T09:40:28.566Z,99745.49
2023-05-10T09:42:59.211Z,99745.33
2023-05-10T09:45:29.704Z,99744.27
2023-05-10T09:47:59.428Z,99742.71
2023-05-10T09:50:28.674Z,99737.61
2023-05-10T09:52:59.604Z,99738.23
2023-05-10T09:55:40.551Z,99743.35
2023-05-10T09:58:10.791Z,99741.98
2023-05-10T10:00:41.200Z,99741.36
2023-05-10T10:03:15.545Z,99737.00
2023-05-10T10:05:45.086Z,99734.17
2023-05-10T10:08:15.042Z,99730.17
2023-05-10T10:10:46.563Z,99733.14
2023-05-10T10:13:15.613Z,99729.20
2023-05-10T10:15:44.792Z,99724.23
2023-05-10T10:18:15.842Z,99722.90
2023-05-10T10:20:44.412Z,99713.30
2023-05-10T10:23:14.552Z,99715.94
2023-05-10T10:25:48.154Z,99714.91
2023-05-10T10:28:25.398Z,99713.61
2023-05-10T10:31:02.243Z,99713.03
2023-05-10T10:33:39.762Z,99712.27
2023-05-10T10:36:08.751Z,99709.02
2023-05-10T10:38:59.813Z,99705.98
2023-05-10T10:41:33.633Z,99709.70
2023-05-10T10:44:26.812Z,99710.05
2023-05-10T10:47:23.419Z,99708.23
2023-05-10T10:50:04.923Z,99705.21
2023-05-10T10:52:34.958Z,99698.20
2023-05-10T10:55:06.927Z,99701.98
2023-05-10T10:57:45.551Z,99698.55
2023-05-10T11:00:27.751Z,99690.98
2023-05-10T11:02:59.846Z,99696.89
2023-05-10T11:05:38.032Z,99695.21
2023-05-10T11:08:12.280Z,99699.42
2023-05-10T11:10:49.604Z,99693.02
2023-05-10T11:13:27.860Z,99687.42
2023-05-10T11:15:58.060Z,99698.92
2023-05-10T11:18:31.018Z,99688.92
2023-05-10T11:21:01.030Z,99685.10
2023-05-10T11:23:34.197Z,99683.29
2023-05-10T11:26:02.857Z,99676.21
2023-05-10T11:28:32.060Z,99682.63
2023-05-10T11:31:00.807Z,99683.08
2023-05-10T11:33:29.600Z,99686.08
2023-05-10T11:35:58.405Z,99682.55
2023-05-10T11:38:27.008Z,99682.70
2023-05-10T11:40:55.674Z,99682.30
2023-05-10T11:43:30.969Z,99678.55
2023-05-10T11:46:00.122Z,99678.23
2023-05-10T11:48:30.718Z,99679.31
2023-05-10T11:51:02.456Z,99677.43
2023-05-10T11:53:32.244Z,99678.92
2023-05-10T11:56:06.061Z,99673.30
2023-05-10T11:58:35.826Z,99671.30
2023-05-10T12:01:05.957Z,99674.71
2023-05-10T12:03:35.109Z,99680.85
2023-05-10T12:06:04.885Z,99681.54
2023-05-10T12:08:33.570Z,99676.45
2023-05-10T12:11:10.760Z,99677.39
2023-05-10T12:13:41.353Z,99675.30
2023-05-10T12:16:18.281Z,99679.05
2023-05-10T12:18:49.178Z,99676.27
2023-05-10T12:21:19.076Z,99671.38
2023-05-10T12:23:50.421Z,99676.99
2023-05-10T12:26:19.187Z,99676.17
2023-05-10T12:28:47.982Z,99676.14
2023-05-10T12:31:16.918Z,99680.12
2023-05-10T12:33:46.858Z,99678.37
2023-05-10T12:36:17.005Z,99678.41
2023-05-10T12:38:48.227Z,99673.14
2023-05-10T12:41:19.753Z,99667.23
2023-05-10T12:43:48.512Z,99664.44
2023-05-10T12:46:18.934Z,99663.08
2023-05-10T12:49:00.173Z,99657.45
2023-05-10T12:51:35.724Z,99658.77
2023-05-10T12:54:05.360Z,99655.27
2023-05-10T12:56:34.103Z,99655.77
2023-05-10T12:59:02.754Z,99657.42
2023-05-10T13:01:34.167Z,99655.83
2023-05-10T13:04:02.947Z,99654.75
2023-05-10T13:06:32.358Z,99650.83
2023-05-10T13:09:01.013Z,99650.76
2023-05-10T13:11:29.944Z,99647.34
2023-05-10T13:13:58.987Z,99643.58
2023-05-10T13:16:27.797Z,99641.63
2023-05-10T13:18:56.988Z,99637.21
2023-05-10T13:21:26.031Z,99640.80
2023-05-10T13:23:55.231Z,99638.37
2023-05-10T13:26:23.986Z,99637.51
2023-05-10T13:28:52.875Z,99631.40
2023-05-10T13:31:21.741Z,99625.48
2023-05-10T13:33:50.479Z,99622.59
2023-05-10T13:36:19.462Z,99617.17
2023-05-10T13:38:48.418Z,99615.03
2023-05-10T13:41:17.146Z,99606.18
2023-05-10T13:43:45.913Z,99610.75
2023-05-10T13:46:14.646Z,99608.46
2023-05-10T13:48:43.328Z,99610.21
2023-05-10T13:51:12.079Z,99610.86
2023-05-10T13:53:45.142Z,99612.11
2023-05-10T13:56:28.450Z,99604.35
2023-05-10T13:59:18.952Z,99605.81
2023-05-10T14:05:12.812Z,99603.73
2023-05-10T14:08:25.613Z,99595.83
2023-05-10T14:11:08.961Z,99596.64
2023-05-10T14:14:15.779Z,99596.02
2023-05-10T14:18:01.330Z,99593.56
2023-05-10T14:21:02.530Z,99591.17
2023-05-10T14:24:30.786Z,99589.98
2023-05-10T14:27:17.925Z,99585.96
2023-05-10T14:30:06.716Z,99582.88
2023-05-10T14:33:15.722Z,99580.36
2023-05-10T14:36:20.206Z,99578.09
2023-05-10T14:39:05.132Z,99573.70
2023-05-10T14:41:59.959Z,99571.54
2023-05-10T14:44:51.766Z,99572.20
2023-05-10T14:47:44.866Z,99572.60
2023-05-10T14:50:44.761Z,99570.23
2023-05-10T14:53:57.688Z,99577.20
2023-05-10T14:56:56.984Z,99577.80
2023-05-10T14:59:56.462Z,99576.73
2023-05-10T15:02:47.390Z,99574.95
2023-05-10T15:05:31.014Z,99577.17
2023-05-10T15:08:00.214Z,99581.16
2023-05-10T15:10:28.932Z,99577.89
2023-05-10T15:13:00.468Z,99577.87
2023-05-10T15:15:29.866Z,99577.85
2023-05-10T15:17:58.726Z,99580.89
2023-05-10T15:20:27.626Z,99576.02
2023-05-10T15:22:56.320Z,99570.88
2023-05-10T15:25:25.645Z,99570.80
2023-05-10T15:27:54.330Z,99571.76
2023-05-10T15:30:23.547Z,99574.65
2023-05-10T15:32:52.222Z,99579.51
2023-05-10T15:35:20.926Z,99571.70
2023-05-10T15:37:50.058Z,99576.91
2023-05-10T15:40:18.901Z,99572.09
2023-05-10T15:42:47.677Z,99574.16
2023-05-10T15:45:17.436Z,99571.14
2023-05-10T15:47:46.684Z,99567.04
2023-05-10T15:50:16.337Z,99572.19
2023-05-10T15:52:46.272Z,99576.66
2023-05-10T15:55:15.369Z,99574.74
2023-05-10T15:57:45.770Z,99573.96
2023-05-10T16:00:15.943Z,99570.44
2023-05-10T16:02:44.801Z,99572.13
2023-05-10T16:05:13.748Z,99570.68
2023-05-10T16:07:42.753Z,99575.93
2023-05-10T16:10:12.254Z,99571.30
2023-05-10T16:12:41.247Z,99570.45
2023-05-10T16:15:11.420Z,99564.79
2023-05-10T16:17:40.931Z,99568.81
2023-05-10T16:20:11.100Z,99570.31
2023-05-10T16:22:39.950Z,99571.58
2023-05-10T16:25:11.002Z,99574.10
2023-05-10T16:27:42.667Z,99572.15
2023-05-10T16:30:12.558Z,99575.68
2023-05-10T16:32:41.688Z,99577.59
2023-05-10T16:35:11.877Z,99578.60
2023-05-10T16:37:41.472Z,99579.78
2023-05-10T16:40:11.587Z,99580.02
2023-05-10T16:42:40.359Z,99582.66
2023-05-10T16:45:12.328Z,99583.57
2023-05-10T16:47:42.570Z,99583.02
2023-05-10T16:50:12.332Z,99582.20
2023-05-10T16:52:41.206Z,99578.67
2023-05-10T16:55:10.525Z,99584.92
2023-05-10T16:57:39.338Z,99590.23
2023-05-10T17:00:14.371Z,99590.02
2023-05-10T17:02:44.337Z,99593.00
2023-05-10T17:05:14.851Z,99592.69
2023-05-10T17:07:43.806Z,99595.43
2023-05-10T17:10:13.316Z,99596.23
2023-05-10T17:12:43.257Z,99597.60
2023-05-10T17:15:13.722Z,99599.96
2023-05-10T17:17:43.447Z,99602.27
2023-05-10T17:20:15.323Z,99607.20
2023-05-10T17:22:44.133Z,99606.46
2023-05-10T17:25:13.129Z,99607.96
2023-05-10T17:27:42.978Z,99612.91
2023-05-10T17:30:14.753Z,99611.65
2023-05-10T17:32:44.124Z,99615.20
2023-05-10T17:35:13.857Z,99618.01
2023-05-10T17:37:43.617Z,99620.76
2023-05-10T17:40:13.420Z,99621.10
2023-05-10T17:42:42.258Z,99626.01
2023-05-10T17:45:12.141Z,99625.84
2023-05-10T17:47:41.012Z,99627.48
2023-05-10T17:50:11.593Z,99630.99
2023-05-10T17:52:40.630Z,99634.91
2023-05-10T17:55:12.394Z,99635.19
2023-05-10T17:57:42.693Z,99635.84
2023-05-10T18:00:19.325Z,99644.73
2023-05-10T18:02:48.261Z,99643.63
2023-05-10T18:05:17.904Z,99646.92
2023-05-10T18:07:52.396Z,99647.36
2023-05-10T18:10:22.509Z,99650.14
2023-05-10T18:13:16.443Z,99652.72
2023-05-10T18:16:15.819Z,99652.72
2023-05-10T18:19:16.605Z,99656.76
2023-05-10T18:22:10.918Z,99658.64
2023-05-10T18:25:40.238Z,99658.84
2023-05-10T18:28:47.743Z,99658.98
2023-05-10T18:31:47.225Z,99664.96
2023-05-10T18:35:54.619Z,99668.41
2023-05-10T18:38:39.498Z,99668.92
2023-05-10T18:41:15.062Z,99675.15
2023-05-10T18:43:49.240Z,99673.48
2023-05-10T18:46:25.390Z,99678.12
2023-05-10T18:49:07.669Z,99681.41
2023-05-10T18:51:42.386Z,99679.73
2023-05-10T18:54:16.149Z,99687.26
2023-05-10T18:56:50.345Z,99690.05
2023-05-10T18:59:24.175Z,99696.69
2023-05-10T19:02:02.433Z,99698.10
2023-05-10T19:04:38.123Z,99699.52
2023-05-10T19:07:13.625Z,99701.63
2023-05-10T19:09:48.445Z,99701.60
2023-05-10T19:12:25.565Z,99706.11
2023-05-10T19:14:59.904Z,99706.48
2023-05-10T19:17:37.042Z,99712.40
2023-05-10T19:20:12.856Z,99712.77
2023-05-10T19:23:08.652Z,99713.83
2023-05-10T19:25:42.565Z,99714.80
2023-05-10T19:28:14.719Z,99715.46
2023-05-10T19:30:47.571Z,99714.81
2023-05-10T19:33:23.477Z,99720.61
2023-05-10T19:35:57.059Z,99717.19
2023-05-10T19:38:35.625Z,99719.36
2023-05-10T19:41:10.569Z,99723.73
2023-05-10T19:43:48.520Z,99723.61
2023-05-10T19:46:24.709Z,99722.81
2023-05-10T19:48:58.090Z,99725.17
2023-05-10T19:51:33.236Z,99725.83
2023-05-10T19:54:08.025Z,99727.02
2023-05-10T19:56:45.832Z,99725.92
2023-05-10T19:59:19.726Z,99725.50
2023-05-10T20:01:53.722Z,99729.84
2023-05-10T20:04:27.229Z,99731.63
2023-05-10T20:07:00.380Z,99732.16
2023-05-10T20:09:37.264Z,99733.64
2023-05-10T20:12:12.605Z,99737.73
2023-05-10T20:14:45.619Z,99742.13
2023-05-10T20:17:18.504Z,99743.09
2023-05-10T20:19:50.930Z,99744.15
2023-05-10T20:22:22.939Z,99749.77
2023-05-10T20:24:55.817Z,99751.36
2023-05-10T20:27:28.656Z,99750.52
2023-05-10T20:30:00.501Z,99753.50
2023-05-10T20:32:32.531Z,99756.17
2023-05-10T20:35:02.898Z,99758.78
2023-05-10T20:37:36.075Z,99755.21
2023-05-10T20:40:11.050Z,99759.40
2023-05-10T20:42:43.171Z,99757.29
2023-05-10T20:45:15.374Z,99757.00
2023-05-10T20:47:45.804Z,99758.46
2023-05-10T20:50:18.097Z,99755.48
2023-05-10T20:52:52.405Z,99759.29
2023-05-10T20:55:24.350Z,99757.98
2023-05-10T20:57:54.780Z,99759.48
2023-05-10T21:00:26.943Z,99759.12
2023-05-10T21:02:58.864Z,99761.86
2023-05-10T21:05:31.511Z,99766.27
2023-05-10T21:08:03.576Z,99768.58
2023-05-10T21:10:35.466Z,99767.31
2023-05-10T21:13:07.374Z,99767.19
2023-05-10T21:15:37.932Z,99771.39
2023-05-10T21:18:09.851Z,99770.32
2023-05-10T21:20:40.288Z,99772.31
2023-05-10T21:23:12.274Z,99776.90
2023-05-10T21:25:42.785Z,99780.86
2023-05-10T21:28:14.710Z,99779.90
2023-05-10T21:30:46.550Z,99780.21
2023-05-10T21:33:18.405Z,99782.39
2023-05-10T21:35:51.280Z,99782.84
2023-05-10T21:38:23.127Z,99782.95
2023-05-10T21:40:58.276Z,99783.27
2023-05-10T21:43:30.349Z,99785.77
2023-05-10T21:46:02.506Z,99782.02
2023-05-10T21:48:34.456Z,99785.17
2023-05-10T21:51:06.608Z,99782.87
2023-05-10T21:53:40.550Z,99783.14
2023-05-10T21:56:12.376Z,99786.61
2023-05-10T21:58:44.394Z,99785.63
2023-05-10T22:01:18.060Z,99782.91
2023-05-10T22:03:50.059Z,99783.17
2023-05-10T22:06:20.655Z,99788.95
2023-05-10T22:08:52.776Z,99785.15
2023-05-10T22:11:24.559Z,99789.35
2023-05-10T22:13:56.601Z,99787.45
2023-05-10T22:16:29.642Z,99784.33
2023-05-10T22:19:01.669Z,99786.17
2023-05-10T22:21:32.181Z,99778.86
2023-05-10T22:24:05.116Z,99787.13
2023-05-10T22:26:36.982Z,99786.28
2023-05-10T22:29:08.976Z,99790.72
2023-05-10T22:31:41.325Z,99795.30
2023-05-10T22:34:13.338Z,99793.69
2023-05-10T22:36:45.377Z,99793.76
2023-05-10T22:39:17.243Z,99794.48
2023-05-10T22:41:48.985Z,99795.97
2023-05-10T22:44:20.933Z,99798.18
2023-05-10T22:46:53.002Z,99799.69
2023-05-10T22:49:23.710Z,99800.48
2023-05-10T22:51:55.552Z,99803.89
2023-05-10T22:54:27.478Z,99801.92
2023-05-10T22:56:59.835Z,99806.90
2023-05-10T22:59:31.769Z,99810.30
2023-05-10T23:02:03.710Z,99810.62
2023-05-10T23:04:36.021Z,99811.90
2023-05-10T23:07:06.540Z,99811.67
2023-05-10T23:09:38.614Z,99810.55
2023-05-10T23:12:09.164Z,99811.06
2023-05-10T23:14:41.646Z,99812.84
2023-05-10T23:17:13.553Z,99816.55
2023-05-10T23:19:45.432Z,99819.83
2023-05-10T23:22:17.585Z,99820.21
2023-05-10T23:24:49.551Z,99820.37
2023-05-10T23:27:21.446Z,99825.05
2023-05-10T23:29:55.775Z,99823.23
2023-05-10T23:32:27.948Z,99823.25
2023-05-10T23:35:00.140Z,99824.61
2023-05-10T23:37:32.069Z,99820.56
2023-05-10T23:40:04.513Z,99818.45
2023-05-10T23:42:37.231Z,99819.60
2023-05-10T23:45:10.843Z,99818.29
2023-05-10T23:47:42.851Z,99812.47
2023-05-10T23:50:15.025Z,99813.79
2023-05-10T23:52:47.132Z,99815.15
2023-05-10T23:55:19.171Z,99814.55
2023-05-10T23:57:49.601Z,99815.30
